sensor_id;sensor_type;location;lat;lon;timestamp;P1;durP1;ratioP1;P2;durP2;ratioP2
20110;SDS011;10216;42.658;23.248;2023-09-19T00:00:22;0.83;;;0.83;;
20110;SDS011;10216;42.658;23.248;2023-09-19T00:02:56;1.40;;;1.30;;
20110;SDS011;10216;42.658;23.248;2023-09-19T00:05:24;1.00;;;0.90;;
20110;SDS011;10216;42.658;23.248;2023-09-19T00:07:50;1.93;;;1.30;;
20110;SDS011;10216;42.658;23.248;2023-09-19T00:10:18;1.10;;;1.00;;
20110;SDS011;10216;42.658;23.248;2023-09-19T00:12:44;0.90;;;0.90;;
20110;SDS011;10216;42.658;23.248;2023-09-19T00:15:09;1.00;;;0.90;;
20110;SDS011;10216;42.658;23.248;2023-09-19T00:17:35;1.30;;;1.20;;
20110;SDS011;10216;42.658;23.248;2023-09-19T00:20:02;1.40;;;1.30;;
20110;SDS011;10216;42.658;23.248;2023-09-19T00:22:32;3.50;;;1.33;;
20110;SDS011;10216;42.658;23.248;2023-09-19T00:24:57;1.57;;;1.10;;
20110;SDS011;10216;42.658;23.248;2023-09-19T00:27:22;0.97;;;0.97;;
20110;SDS011;10216;42.658;23.248;2023-09-19T00:29:47;2.37;;;1.33;;
20110;SDS011;10216;42.658;23.248;2023-09-19T00:32:13;1.23;;;1.13;;
20110;SDS011;10216;42.658;23.248;2023-09-19T00:34:38;1.30;;;1.20;;
20110;SDS011;10216;42.658;23.248;2023-09-19T00:37:03;1.97;;;1.30;;
20110;SDS011;10216;42.658;23.248;2023-09-19T00:39:28;1.03;;;1.03;;
20110;SDS011;10216;42.658;23.248;2023-09-19T00:41:56;1.70;;;1.13;;
20110;SDS011;10216;42.658;23.248;2023-09-19T00:44:21;2.33;;;1.30;;
20110;SDS011;10216;42.658;23.248;2023-09-19T00:46:48;1.50;;;1.40;;
20110;SDS011;10216;42.658;23.248;2023-09-19T00:49:15;2.00;;;1.47;;
20110;SDS011;10216;42.658;23.248;2023-09-19T00:51:41;1.33;;;1.23;;
20110;SDS011;10216;42.658;23.248;2023-09-19T00:54:12;1.10;;;1.10;;
20110;SDS011;10216;42.658;23.248;2023-09-19T00:56:43;2.03;;;1.43;;
20110;SDS011;10216;42.658;23.248;2023-09-19T00:59:08;1.43;;;1.33;;
20110;SDS011;10216;42.658;23.248;2023-09-19T01:01:33;0.97;;;0.97;;
20110;SDS011;10216;42.658;23.248;2023-09-19T01:03:58;2.20;;;1.20;;
20110;SDS011;10216;42.658;23.248;2023-09-19T01:06:23;1.30;;;1.20;;
20110;SDS011;10216;42.658;23.248;2023-09-19T01:08:49;1.67;;;1.10;;
20110;SDS011;10216;42.658;23.248;2023-09-19T01:16:56;1.83;;;0.87;;
20110;SDS011;10216;42.658;23.248;2023-09-19T01:22:06;0.97;;;0.93;;
20110;SDS011;10216;42.658;23.248;2023-09-19T01:29:45;0.93;;;0.83;;
20110;SDS011;10216;42.658;23.248;2023-09-19T01:32:13;1.20;;;1.10;;
20110;SDS011;10216;42.658;23.248;2023-09-19T01:34:43;1.30;;;1.20;;
20110;SDS011;10216;42.658;23.248;2023-09-19T01:37:10;1.43;;;1.33;;
20110;SDS011;10216;42.658;23.248;2023-09-19T01:39:35;1.37;;;1.27;;
20110;SDS011;10216;42.658;23.248;2023-09-19T01:42:25;1.57;;;1.40;;
20110;SDS011;10216;42.658;23.248;2023-09-19T01:44:59;0.87;;;0.83;;
20110;SDS011;10216;42.658;23.248;2023-09-19T01:47:27;1.40;;;1.03;;
20110;SDS011;10216;42.658;23.248;2023-09-19T01:50:02;1.37;;;1.00;;
20110;SDS011;10216;42.658;23.248;2023-09-19T01:52:31;1.70;;;1.23;;
20110;SDS011;10216;42.658;23.248;2023-09-19T01:55:02;1.17;;;1.07;;
20110;SDS011;10216;42.658;23.248;2023-09-19T01:57:49;2.70;;;0.93;;
20110;SDS011;10216;42.658;23.248;2023-09-19T02:00:17;0.97;;;0.90;;
20110;SDS011;10216;42.658;23.248;2023-09-19T02:02:46;1.97;;;1.60;;
20110;SDS011;10216;42.658;23.248;2023-09-19T02:05:24;1.20;;;1.10;;
20110;SDS011;10216;42.658;23.248;2023-09-19T02:07:50;1.37;;;1.27;;
20110;SDS011;10216;42.658;23.248;2023-09-19T02:10:15;0.80;;;0.80;;
20110;SDS011;10216;42.658;23.248;2023-09-19T02:12:42;1.67;;;1.23;;
20110;SDS011;10216;42.658;23.248;2023-09-19T02:15:07;1.67;;;1.57;;
20110;SDS011;10216;42.658;23.248;2023-09-19T02:17:33;1.40;;;1.10;;
20110;SDS011;10216;42.658;23.248;2023-09-19T02:19:58;0.93;;;0.90;;
20110;SDS011;10216;42.658;23.248;2023-09-19T02:22:25;1.10;;;1.10;;
20110;SDS011;10216;42.658;23.248;2023-09-19T02:24:51;2.07;;;1.17;;
20110;SDS011;10216;42.658;23.248;2023-09-19T02:27:17;0.93;;;0.93;;
20110;SDS011;10216;42.658;23.248;2023-09-19T02:29:43;1.20;;;1.00;;
20110;SDS011;10216;42.658;23.248;2023-09-19T02:32:08;1.70;;;1.10;;
20110;SDS011;10216;42.658;23.248;2023-09-19T02:34:34;1.50;;;1.40;;
20110;SDS011;10216;42.658;23.248;2023-09-19T02:37:01;1.30;;;1.00;;
20110;SDS011;10216;42.658;23.248;2023-09-19T02:39:26;0.97;;;0.90;;
20110;SDS011;10216;42.658;23.248;2023-09-19T02:41:53;0.97;;;0.97;;
20110;SDS011;10216;42.658;23.248;2023-09-19T02:44:18;1.50;;;1.20;;
20110;SDS011;10216;42.658;23.248;2023-09-19T02:46:45;2.37;;;1.43;;
20110;SDS011;10216;42.658;23.248;2023-09-19T02:49:10;1.63;;;1.23;;
20110;SDS011;10216;42.658;23.248;2023-09-19T02:51:35;1.33;;;1.20;;
20110;SDS011;10216;42.658;23.248;2023-09-19T02:54:00;1.13;;;1.13;;
20110;SDS011;10216;42.658;23.248;2023-09-19T02:56:29;0.90;;;0.90;;
20110;SDS011;10216;42.658;23.248;2023-09-19T02:58:55;2.63;;;1.23;;
20110;SDS011;10216;42.658;23.248;2023-09-19T03:01:20;1.07;;;1.00;;
20110;SDS011;10216;42.658;23.248;2023-09-19T03:03:46;1.30;;;1.20;;
20110;SDS011;10216;42.658;23.248;2023-09-19T03:06:11;1.03;;;1.00;;
20110;SDS011;10216;42.658;23.248;2023-09-19T03:08:38;1.30;;;1.20;;
20110;SDS011;10216;42.658;23.248;2023-09-19T03:11:04;0.83;;;0.83;;
20110;SDS011;10216;42.658;23.248;2023-09-19T03:13:31;1.23;;;1.10;;
20110;SDS011;10216;42.658;23.248;2023-09-19T03:15:56;0.87;;;0.87;;
20110;SDS011;10216;42.658;23.248;2023-09-19T03:18:23;1.13;;;0.97;;
20110;SDS011;10216;42.658;23.248;2023-09-19T03:20:52;2.20;;;1.20;;
20110;SDS011;10216;42.658;23.248;2023-09-19T03:23:19;1.30;;;1.20;;
20110;SDS011;10216;42.658;23.248;2023-09-19T03:25:45;0.87;;;0.80;;
20110;SDS011;10216;42.658;23.248;2023-09-19T03:28:10;1.77;;;1.30;;
20110;SDS011;10216;42.658;23.248;2023-09-19T03:30:35;1.10;;;1.00;;
20110;SDS011;10216;42.658;23.248;2023-09-19T03:33:00;1.33;;;1.23;;
20110;SDS011;10216;42.658;23.248;2023-09-19T03:35:26;2.73;;;1.27;;
20110;SDS011;10216;42.658;23.248;2023-09-19T03:37:51;0.87;;;0.87;;
20110;SDS011;10216;42.658;23.248;2023-09-19T03:40:17;1.40;;;1.30;;
20110;SDS011;10216;42.658;23.248;2023-09-19T03:42:45;1.30;;;1.20;;
20110;SDS011;10216;42.658;23.248;2023-09-19T03:45:11;0.77;;;0.77;;
20110;SDS011;10216;42.658;23.248;2023-09-19T03:47:41;1.57;;;1.47;;
20110;SDS011;10216;42.658;23.248;2023-09-19T03:50:06;1.00;;;1.00;;
20110;SDS011;10216;42.658;23.248;2023-09-19T03:52:43;0.90;;;0.80;;
20110;SDS011;10216;42.658;23.248;2023-09-19T03:55:08;0.70;;;0.70;;
20110;SDS011;10216;42.658;23.248;2023-09-19T03:57:34;1.33;;;1.23;;
20110;SDS011;10216;42.658;23.248;2023-09-19T04:00:00;1.73;;;1.00;;
20110;SDS011;10216;42.658;23.248;2023-09-19T04:02:25;1.87;;;1.10;;
20110;SDS011;10216;42.658;23.248;2023-09-19T04:04:51;1.40;;;1.30;;
20110;SDS011;10216;42.658;23.248;2023-09-19T04:07:17;1.20;;;1.10;;
20110;SDS011;10216;42.658;23.248;2023-09-19T04:09:44;2.17;;;1.20;;
20110;SDS011;10216;42.658;23.248;2023-09-19T04:12:09;2.27;;;1.73;;
20110;SDS011;10216;42.658;23.248;2023-09-19T04:14:35;0.90;;;0.90;;
20110;SDS011;10216;42.658;23.248;2023-09-19T04:17:00;1.27;;;0.90;;
20110;SDS011;10216;42.658;23.248;2023-09-19T04:19:25;0.80;;;0.80;;
20110;SDS011;10216;42.658;23.248;2023-09-19T04:21:50;1.43;;;1.20;;
20110;SDS011;10216;42.658;23.248;2023-09-19T04:24:16;1.20;;;1.10;;
20110;SDS011;10216;42.658;23.248;2023-09-19T04:26:44;1.53;;;1.30;;
20110;SDS011;10216;42.658;23.248;2023-09-19T04:29:09;1.57;;;1.10;;
20110;SDS011;10216;42.658;23.248;2023-09-19T04:31:36;1.50;;;1.40;;
20110;SDS011;10216;42.658;23.248;2023-09-19T04:34:05;1.17;;;1.10;;
20110;SDS011;10216;42.658;23.248;2023-09-19T04:36:30;1.00;;;1.00;;
20110;SDS011;10216;42.658;23.248;2023-09-19T04:38:56;1.73;;;1.30;;
20110;SDS011;10216;42.658;23.248;2023-09-19T04:41:21;1.00;;;1.00;;
20110;SDS011;10216;42.658;23.248;2023-09-19T04:43:47;2.03;;;1.40;;
20110;SDS011;10216;42.658;23.248;2023-09-19T04:46:12;1.50;;;1.40;;
20110;SDS011;10216;42.658;23.248;2023-09-19T04:48:39;1.43;;;0.90;;
20110;SDS011;10216;42.658;23.248;2023-09-19T04:51:05;1.50;;;1.40;;
20110;SDS011;10216;42.658;23.248;2023-09-19T04:53:30;1.40;;;1.30;;
20110;SDS011;10216;42.658;23.248;2023-09-19T04:55:55;1.10;;;1.10;;
20110;SDS011;10216;42.658;23.248;2023-09-19T04:58:22;1.47;;;1.30;;
20110;SDS011;10216;42.658;23.248;2023-09-19T05:00:47;3.27;;;1.40;;
20110;SDS011;10216;42.658;23.248;2023-09-19T05:03:12;1.37;;;1.27;;
20110;SDS011;10216;42.658;23.248;2023-09-19T05:05:38;1.20;;;1.13;;
20110;SDS011;10216;42.658;23.248;2023-09-19T05:08:04;2.67;;;1.30;;
20110;SDS011;10216;42.658;23.248;2023-09-19T05:10:30;1.73;;;1.47;;
20110;SDS011;10216;42.658;23.248;2023-09-19T05:12:55;2.00;;;1.80;;
20110;SDS011;10216;42.658;23.248;2023-09-19T05:15:21;2.67;;;2.23;;
20110;SDS011;10216;42.658;23.248;2023-09-19T05:17:49;2.03;;;1.60;;
20110;SDS011;10216;42.658;23.248;2023-09-19T05:20:16;1.83;;;1.70;;
20110;SDS011;10216;42.658;23.248;2023-09-19T05:22:42;2.63;;;2.10;;
20110;SDS011;10216;42.658;23.248;2023-09-19T05:25:08;1.87;;;1.67;;
20110;SDS011;10216;42.658;23.248;2023-09-19T05:27:33;3.13;;;2.20;;
20110;SDS011;10216;42.658;23.248;2023-09-19T05:29:59;2.90;;;2.00;;
20110;SDS011;10216;42.658;23.248;2023-09-19T05:32:24;2.70;;;2.20;;
20110;SDS011;10216;42.658;23.248;2023-09-19T05:34:49;2.57;;;2.37;;
20110;SDS011;10216;42.658;23.248;2023-09-19T05:37:18;2.97;;;2.63;;
20110;SDS011;10216;42.658;23.248;2023-09-19T05:39:43;2.63;;;2.43;;
20110;SDS011;10216;42.658;23.248;2023-09-19T05:42:09;2.77;;;2.43;;
20110;SDS011;10216;42.658;23.248;2023-09-19T05:44:34;2.80;;;2.50;;
20110;SDS011;10216;42.658;23.248;2023-09-19T05:47:01;2.83;;;2.50;;
20110;SDS011;10216;42.658;23.248;2023-09-19T05:49:26;2.97;;;2.67;;
20110;SDS011;10216;42.658;23.248;2023-09-19T05:51:52;2.53;;;2.33;;
20110;SDS011;10216;42.658;23.248;2023-09-19T05:54:20;2.80;;;2.30;;
20110;SDS011;10216;42.658;23.248;2023-09-19T05:56:45;2.80;;;2.30;;
20110;SDS011;10216;42.658;23.248;2023-09-19T05:59:12;2.93;;;2.47;;
20110;SDS011;10216;42.658;23.248;2023-09-19T06:01:41;3.63;;;2.80;;
20110;SDS011;10216;42.658;23.248;2023-09-19T06:04:07;2.90;;;2.50;;
20110;SDS011;10216;42.658;23.248;2023-09-19T06:06:32;2.73;;;2.37;;
20110;SDS011;10216;42.658;23.248;2023-09-19T06:08:58;3.57;;;2.97;;
20110;SDS011;10216;42.658;23.248;2023-09-19T06:11:24;3.17;;;2.83;;
20110;SDS011;10216;42.658;23.248;2023-09-19T06:13:51;2.83;;;2.60;;
20110;SDS011;10216;42.658;23.248;2023-09-19T06:16:18;3.67;;;3.10;;
20110;SDS011;10216;42.658;23.248;2023-09-19T06:18:44;2.80;;;2.60;;
20110;SDS011;10216;42.658;23.248;2023-09-19T06:21:10;3.53;;;3.20;;
20110;SDS011;10216;42.658;23.248;2023-09-19T06:23:36;3.43;;;2.80;;
20110;SDS011;10216;42.658;23.248;2023-09-19T06:26:01;4.03;;;3.47;;
20110;SDS011;10216;42.658;23.248;2023-09-19T06:28:26;3.67;;;2.77;;
20110;SDS011;10216;42.658;23.248;2023-09-19T06:30:53;4.03;;;3.37;;
20110;SDS011;10216;42.658;23.248;2023-09-19T06:33:19;4.13;;;3.43;;
20110;SDS011;10216;42.658;23.248;2023-09-19T06:35:46;3.30;;;3.00;;
20110;SDS011;10216;42.658;23.248;2023-09-19T06:38:12;4.23;;;3.40;;
20110;SDS011;10216;42.658;23.248;2023-09-19T06:40:38;4.13;;;3.50;;
20110;SDS011;10216;42.658;23.248;2023-09-19T06:43:03;3.70;;;3.40;;
20110;SDS011;10216;42.658;23.248;2023-09-19T06:45:30;3.93;;;2.93;;
20110;SDS011;10216;42.658;23.248;2023-09-19T06:47:56;4.23;;;3.27;;
20110;SDS011;10216;42.658;23.248;2023-09-19T06:50:23;4.93;;;3.60;;
20110;SDS011;10216;42.658;23.248;2023-09-19T06:52:52;5.40;;;2.93;;
20110;SDS011;10216;42.658;23.248;2023-09-19T06:55:19;4.23;;;3.37;;
20110;SDS011;10216;42.658;23.248;2023-09-19T06:57:45;3.60;;;3.30;;
20110;SDS011;10216;42.658;23.248;2023-09-19T07:00:11;3.63;;;3.10;;
20110;SDS011;10216;42.658;23.248;2023-09-19T07:05:26;3.00;;;2.70;;
20110;SDS011;10216;42.658;23.248;2023-09-19T07:07:52;3.80;;;2.90;;
20110;SDS011;10216;42.658;23.248;2023-09-19T07:10:19;4.20;;;3.23;;
20110;SDS011;10216;42.658;23.248;2023-09-19T07:12:45;2.20;;;2.00;;
20110;SDS011;10216;42.658;23.248;2023-09-19T07:15:10;2.70;;;2.50;;
20110;SDS011;10216;42.658;23.248;2023-09-19T07:17:35;3.87;;;3.00;;
20110;SDS011;10216;42.658;23.248;2023-09-19T07:20:02;3.03;;;2.57;;
20110;SDS011;10216;42.658;23.248;2023-09-19T07:22:33;3.77;;;3.10;;
20110;SDS011;10216;42.658;23.248;2023-09-19T07:24:58;2.87;;;2.57;;
20110;SDS011;10216;42.658;23.248;2023-09-19T07:27:23;4.03;;;2.40;;
20110;SDS011;10216;42.658;23.248;2023-09-19T07:29:49;2.60;;;2.40;;
20110;SDS011;10216;42.658;23.248;2023-09-19T07:32:15;2.70;;;2.50;;
20110;SDS011;10216;42.658;23.248;2023-09-19T07:34:42;2.47;;;2.27;;
20110;SDS011;10216;42.658;23.248;2023-09-19T07:37:09;2.70;;;2.50;;
20110;SDS011;10216;42.658;23.248;2023-09-19T07:39:34;2.50;;;2.30;;
20110;SDS011;10216;42.658;23.248;2023-09-19T07:42:00;3.27;;;2.90;;
20110;SDS011;10216;42.658;23.248;2023-09-19T07:44:26;3.33;;;2.70;;
20110;SDS011;10216;42.658;23.248;2023-09-19T07:46:51;3.37;;;2.87;;
20110;SDS011;10216;42.658;23.248;2023-09-19T07:49:17;2.60;;;2.23;;
20110;SDS011;10216;42.658;23.248;2023-09-19T07:51:43;2.30;;;2.10;;
20110;SDS011;10216;42.658;23.248;2023-09-19T07:54:11;2.67;;;2.47;;
20110;SDS011;10216;42.658;23.248;2023-09-19T07:56:36;3.17;;;2.87;;
20110;SDS011;10216;42.658;23.248;2023-09-19T07:59:02;2.60;;;2.40;;
20110;SDS011;10216;42.658;23.248;2023-09-19T08:01:27;4.60;;;3.07;;
20110;SDS011;10216;42.658;23.248;2023-09-19T08:03:53;4.17;;;2.87;;
20110;SDS011;10216;42.658;23.248;2023-09-19T08:06:18;3.13;;;2.80;;
20110;SDS011;10216;42.658;23.248;2023-09-19T08:08:45;3.50;;;2.97;;
20110;SDS011;10216;42.658;23.248;2023-09-19T08:11:10;3.77;;;2.83;;
20110;SDS011;10216;42.658;23.248;2023-09-19T08:13:40;3.57;;;2.90;;
20110;SDS011;10216;42.658;23.248;2023-09-19T08:16:08;3.10;;;2.67;;
20110;SDS011;10216;42.658;23.248;2023-09-19T08:18:33;2.73;;;2.47;;
20110;SDS011;10216;42.658;23.248;2023-09-19T08:20:59;7.00;;;3.67;;
20110;SDS011;10216;42.658;23.248;2023-09-19T08:23:25;6.03;;;3.67;;
20110;SDS011;10216;42.658;23.248;2023-09-19T08:25:55;4.30;;;2.93;;
20110;SDS011;10216;42.658;23.248;2023-09-19T08:28:20;2.77;;;2.57;;
20110;SDS011;10216;42.658;23.248;2023-09-19T08:30:49;3.60;;;2.40;;
20110;SDS011;10216;42.658;23.248;2023-09-19T08:33:14;3.00;;;2.73;;
20110;SDS011;10216;42.658;23.248;2023-09-19T08:35:42;3.00;;;2.70;;
20110;SDS011;10216;42.658;23.248;2023-09-19T08:38:09;3.07;;;2.67;;
20110;SDS011;10216;42.658;23.248;2023-09-19T08:40:38;3.23;;;2.93;;
20110;SDS011;10216;42.658;23.248;2023-09-19T08:43:06;3.00;;;2.70;;
20110;SDS011;10216;42.658;23.248;2023-09-19T08:45:32;2.90;;;2.60;;
20110;SDS011;10216;42.658;23.248;2023-09-19T08:50:26;2.60;;;2.40;;
20110;SDS011;10216;42.658;23.248;2023-09-19T08:52:53;2.97;;;2.70;;
20110;SDS011;10216;42.658;23.248;2023-09-19T08:55:20;2.80;;;2.40;;
20110;SDS011;10216;42.658;23.248;2023-09-19T08:57:51;3.37;;;2.73;;
20110;SDS011;10216;42.658;23.248;2023-09-19T09:00:17;3.87;;;2.60;;
20110;SDS011;10216;42.658;23.248;2023-09-19T09:02:43;3.20;;;2.87;;
20110;SDS011;10216;42.658;23.248;2023-09-19T09:05:09;3.10;;;2.30;;
20110;SDS011;10216;42.658;23.248;2023-09-19T09:07:36;2.77;;;2.20;;
20110;SDS011;10216;42.658;23.248;2023-09-19T09:10:02;2.87;;;2.50;;
20110;SDS011;10216;42.658;23.248;2023-09-19T09:12:35;3.93;;;2.30;;
20110;SDS011;10216;42.658;23.248;2023-09-19T09:15:02;2.90;;;2.53;;
20110;SDS011;10216;42.658;23.248;2023-09-19T09:17:29;2.70;;;2.40;;
20110;SDS011;10216;42.658;23.248;2023-09-19T09:19:56;3.83;;;2.37;;
20110;SDS011;10216;42.658;23.248;2023-09-19T09:22:22;2.70;;;2.50;;
20110;SDS011;10216;42.658;23.248;2023-09-19T09:27:23;2.80;;;2.00;;
20110;SDS011;10216;42.658;23.248;2023-09-19T09:29:49;2.95;;;2.30;;
20110;SDS011;10216;42.658;23.248;2023-09-19T09:32:22;2.33;;;2.13;;
20110;SDS011;10216;42.658;23.248;2023-09-19T09:34:51;2.60;;;2.40;;
20110;SDS011;10216;42.658;23.248;2023-09-19T09:37:17;2.72;;;2.40;;
20110;SDS011;10216;42.658;23.248;2023-09-19T09:40:01;2.10;;;1.90;;
20110;SDS011;10216;42.658;23.248;2023-09-19T09:42:41;2.08;;;1.98;;
20110;SDS011;10216;42.658;23.248;2023-09-19T09:45:13;2.70;;;2.38;;
20110;SDS011;10216;42.658;23.248;2023-09-19T09:47:56;2.90;;;2.47;;
20110;SDS011;10216;42.658;23.248;2023-09-19T09:50:32;2.47;;;2.28;;
20110;SDS011;10216;42.658;23.248;2023-09-19T09:53:29;2.90;;;2.13;;
20110;SDS011;10216;42.658;23.248;2023-09-19T09:58:24;2.35;;;2.15;;
20110;SDS011;10216;42.658;23.248;2023-09-19T10:00:57;1.98;;;1.83;;
20110;SDS011;10216;42.658;23.248;2023-09-19T10:03:30;2.88;;;2.60;;
20110;SDS011;10216;42.658;23.248;2023-09-19T10:05:58;2.28;;;2.00;;
20110;SDS011;10216;42.658;23.248;2023-09-19T10:08:23;2.45;;;2.20;;
20110;SDS011;10216;42.658;23.248;2023-09-19T10:10:49;2.25;;;2.05;;
20110;SDS011;10216;42.658;23.248;2023-09-19T10:13:17;2.35;;;2.15;;
20110;SDS011;10216;42.658;23.248;2023-09-19T10:15:50;2.83;;;2.10;;
20110;SDS011;10216;42.658;23.248;2023-09-19T10:18:23;2.20;;;2.00;;
20110;SDS011;10216;42.658;23.248;2023-09-19T10:20:50;1.88;;;1.77;;
20110;SDS011;10216;42.658;23.248;2023-09-19T10:23:16;2.20;;;2.00;;
20110;SDS011;10216;42.658;23.248;2023-09-19T10:25:47;2.78;;;2.22;;
20110;SDS011;10216;42.658;23.248;2023-09-19T10:28:13;2.25;;;2.13;;
20110;SDS011;10216;42.658;23.248;2023-09-19T10:30:43;3.63;;;2.30;;
20110;SDS011;10216;42.658;23.248;2023-09-19T10:33:19;1.83;;;1.73;;
20110;SDS011;10216;42.658;23.248;2023-09-19T10:35:48;2.33;;;2.05;;
20110;SDS011;10216;42.658;23.248;2023-09-19T10:38:14;2.03;;;1.85;;
20110;SDS011;10216;42.658;23.248;2023-09-19T10:40:39;2.67;;;2.47;;
20110;SDS011;10216;42.658;23.248;2023-09-19T10:43:17;3.00;;;2.35;;
20110;SDS011;10216;42.658;23.248;2023-09-19T10:45:51;2.47;;;2.08;;
20110;SDS011;10216;42.658;23.248;2023-09-19T10:48:19;2.65;;;2.40;;
20110;SDS011;10216;42.658;23.248;2023-09-19T10:51:06;2.58;;;2.10;;
20110;SDS011;10216;42.658;23.248;2023-09-19T10:53:31;2.38;;;2.17;;
20110;SDS011;10216;42.658;23.248;2023-09-19T10:56:05;2.40;;;2.20;;
20110;SDS011;10216;42.658;23.248;2023-09-19T10:58:39;2.38;;;2.17;;
20110;SDS011;10216;42.658;23.248;2023-09-19T11:01:07;2.10;;;1.90;;
20110;SDS011;10216;42.658;23.248;2023-09-19T11:03:37;3.33;;;2.28;;
20110;SDS011;10216;42.658;23.248;2023-09-19T11:22:13;2.30;;;2.10;;
20110;SDS011;10216;42.658;23.248;2023-09-19T11:24:38;2.95;;;1.70;;
20110;SDS011;10216;42.658;23.248;2023-09-19T11:27:10;2.33;;;2.10;;
20110;SDS011;10216;42.658;23.248;2023-09-19T11:29:38;1.92;;;1.77;;
20110;SDS011;10216;42.658;23.248;2023-09-19T11:32:04;2.50;;;2.30;;
20110;SDS011;10216;42.658;23.248;2023-09-19T11:40:08;2.17;;;1.98;;
20110;SDS011;10216;42.658;23.248;2023-09-19T11:42:48;2.33;;;2.00;;
20110;SDS011;10216;42.658;23.248;2023-09-19T11:47:58;2.35;;;2.10;;
20110;SDS011;10216;42.658;23.248;2023-09-19T11:50:25;2.50;;;2.30;;
20110;SDS011;10216;42.658;23.248;2023-09-19T11:52:51;2.25;;;2.05;;
20110;SDS011;10216;42.658;23.248;2023-09-19T11:55:17;1.90;;;1.80;;
20110;SDS011;10216;42.658;23.248;2023-09-19T11:57:46;2.22;;;2.03;;
20110;SDS011;10216;42.658;23.248;2023-09-19T12:00:17;2.90;;;2.38;;
20110;SDS011;10216;42.658;23.248;2023-09-19T12:02:42;2.30;;;2.10;;
20110;SDS011;10216;42.658;23.248;2023-09-19T12:05:11;1.88;;;1.63;;
20110;SDS011;10216;42.658;23.248;2023-09-19T12:07:43;2.00;;;1.90;;
20110;SDS011;10216;42.658;23.248;2023-09-19T12:10:12;2.20;;;1.98;;
20110;SDS011;10216;42.658;23.248;2023-09-19T12:12:39;2.90;;;2.30;;
20110;SDS011;10216;42.658;23.248;2023-09-19T12:15:05;2.13;;;1.92;;
20110;SDS011;10216;42.658;23.248;2023-09-19T12:17:38;2.22;;;2.03;;
20110;SDS011;10216;42.658;23.248;2023-09-19T12:20:04;3.33;;;1.98;;
20110;SDS011;10216;42.658;23.248;2023-09-19T12:22:48;1.80;;;1.70;;
20110;SDS011;10216;42.658;23.248;2023-09-19T12:25:14;1.92;;;1.83;;
20110;SDS011;10216;42.658;23.248;2023-09-19T12:27:45;2.92;;;1.73;;
20110;SDS011;10216;42.658;23.248;2023-09-19T12:30:14;2.67;;;2.13;;
20110;SDS011;10216;42.658;23.248;2023-09-19T12:32:42;2.30;;;2.10;;
20110;SDS011;10216;42.658;23.248;2023-09-19T12:35:07;2.00;;;1.80;;
20110;SDS011;10216;42.658;23.248;2023-09-19T12:37:36;1.90;;;1.75;;
20110;SDS011;10216;42.658;23.248;2023-09-19T12:40:05;1.70;;;1.60;;
20110;SDS011;10216;42.658;23.248;2023-09-19T12:42:42;1.73;;;1.63;;
20110;SDS011;10216;42.658;23.248;2023-09-19T12:45:09;1.60;;;1.50;;
20110;SDS011;10216;42.658;23.248;2023-09-19T12:47:34;2.40;;;1.55;;
20110;SDS011;10216;42.658;23.248;2023-09-19T12:50:13;1.90;;;1.65;;
20110;SDS011;10216;42.658;23.248;2023-09-19T12:52:48;1.98;;;1.88;;
20110;SDS011;10216;42.658;23.248;2023-09-19T12:55:21;2.85;;;1.80;;
20110;SDS011;10216;42.658;23.248;2023-09-19T12:57:59;1.70;;;1.60;;
20110;SDS011;10216;42.658;23.248;2023-09-19T13:00:46;1.80;;;1.67;;
20110;SDS011;10216;42.658;23.248;2023-09-19T13:03:15;1.83;;;1.73;;
20110;SDS011;10216;42.658;23.248;2023-09-19T13:08:23;1.83;;;1.73;;
20110;SDS011;10216;42.658;23.248;2023-09-19T13:13:31;1.50;;;1.40;;
20110;SDS011;10216;42.658;23.248;2023-09-19T13:15:57;2.70;;;2.33;;
20110;SDS011;10216;42.658;23.248;2023-09-19T13:18:23;1.73;;;1.63;;
20110;SDS011;10216;42.658;23.248;2023-09-19T13:21:07;1.60;;;1.50;;
20110;SDS011;10216;42.658;23.248;2023-09-19T13:23:37;1.60;;;1.50;;
20110;SDS011;10216;42.658;23.248;2023-09-19T13:26:03;1.75;;;1.65;;
20110;SDS011;10216;42.658;23.248;2023-09-19T13:28:30;1.52;;;1.42;;
20110;SDS011;10216;42.658;23.248;2023-09-19T13:30:55;2.83;;;1.55;;
20110;SDS011;10216;42.658;23.248;2023-09-19T13:33:22;2.10;;;1.73;;
20110;SDS011;10216;42.658;23.248;2023-09-19T13:35:47;1.70;;;1.60;;
20110;SDS011;10216;42.658;23.248;2023-09-19T13:38:13;1.98;;;1.88;;
20110;SDS011;10216;42.658;23.248;2023-09-19T13:40:39;1.38;;;1.30;;
20110;SDS011;10216;42.658;23.248;2023-09-19T13:43:06;2.00;;;1.75;;
20110;SDS011;10216;42.658;23.248;2023-09-19T13:45:32;1.92;;;1.70;;
20110;SDS011;10216;42.658;23.248;2023-09-19T13:47:57;2.78;;;2.00;;
20110;SDS011;10216;42.658;23.248;2023-09-19T13:50:24;1.70;;;1.45;;
20110;SDS011;10216;42.658;23.248;2023-09-19T13:52:50;2.50;;;1.70;;
20110;SDS011;10216;42.658;23.248;2023-09-19T13:55:19;2.47;;;1.80;;
20110;SDS011;10216;42.658;23.248;2023-09-19T13:57:48;2.10;;;1.77;;
20110;SDS011;10216;42.658;23.248;2023-09-19T14:00:21;2.17;;;1.98;;
20110;SDS011;10216;42.658;23.248;2023-09-19T14:02:47;2.05;;;1.85;;
20110;SDS011;10216;42.658;23.248;2023-09-19T14:05:14;2.88;;;1.92;;
20110;SDS011;10216;42.658;23.248;2023-09-19T14:07:40;3.25;;;1.95;;
20110;SDS011;10216;42.658;23.248;2023-09-19T14:10:06;1.83;;;1.70;;
20110;SDS011;10216;42.658;23.248;2023-09-19T14:12:35;2.38;;;2.17;;
20110;SDS011;10216;42.658;23.248;2023-09-19T14:15:01;2.08;;;1.70;;
20110;SDS011;10216;42.658;23.248;2023-09-19T14:17:26;2.05;;;1.88;;
20110;SDS011;10216;42.658;23.248;2023-09-19T14:19:52;2.92;;;1.65;;
20110;SDS011;10216;42.658;23.248;2023-09-19T14:22:17;1.70;;;1.60;;
20110;SDS011;10216;42.658;23.248;2023-09-19T14:24:42;1.70;;;1.60;;
20110;SDS011;10216;42.658;23.248;2023-09-19T14:27:08;1.70;;;1.60;;
20110;SDS011;10216;42.658;23.248;2023-09-19T14:29:34;1.92;;;1.77;;
20110;SDS011;10216;42.658;23.248;2023-09-19T14:31:59;2.20;;;2.00;;
20110;SDS011;10216;42.658;23.248;2023-09-19T14:34:24;1.67;;;1.58;;
20110;SDS011;10216;42.658;23.248;2023-09-19T14:36:50;2.20;;;2.00;;
20110;SDS011;10216;42.658;23.248;2023-09-19T14:39:15;2.00;;;1.80;;
20110;SDS011;10216;42.658;23.248;2023-09-19T14:41:40;2.75;;;1.92;;
20110;SDS011;10216;42.658;23.248;2023-09-19T14:44:05;1.58;;;1.40;;
20110;SDS011;10216;42.658;23.248;2023-09-19T14:46:30;1.77;;;1.67;;
20110;SDS011;10216;42.658;23.248;2023-09-19T14:48:56;2.10;;;1.80;;
20110;SDS011;10216;42.658;23.248;2023-09-19T14:51:24;1.88;;;1.70;;
20110;SDS011;10216;42.658;23.248;2023-09-19T14:53:50;1.67;;;1.58;;
20110;SDS011;10216;42.658;23.248;2023-09-19T14:56:15;1.40;;;1.30;;
20110;SDS011;10216;42.658;23.248;2023-09-19T14:58:43;2.00;;;1.80;;
20110;SDS011;10216;42.658;23.248;2023-09-19T15:01:09;1.73;;;1.63;;
20110;SDS011;10216;42.658;23.248;2023-09-19T15:03:38;1.77;;;1.67;;
20110;SDS011;10216;42.658;23.248;2023-09-19T15:06:08;3.05;;;1.50;;
20110;SDS011;10216;42.658;23.248;2023-09-19T15:08:36;1.90;;;1.80;;
20110;SDS011;10216;42.658;23.248;2023-09-19T15:11:03;2.33;;;1.80;;
20110;SDS011;10216;42.658;23.248;2023-09-19T15:13:30;2.20;;;1.90;;
20110;SDS011;10216;42.658;23.248;2023-09-19T15:16:02;2.03;;;1.73;;
20110;SDS011;10216;42.658;23.248;2023-09-19T15:18:28;1.98;;;1.67;;
20110;SDS011;10216;42.658;23.248;2023-09-19T15:20:55;1.87;;;1.77;;
20110;SDS011;10216;42.658;23.248;2023-09-19T15:23:20;1.70;;;1.60;;
20110;SDS011;10216;42.658;23.248;2023-09-19T15:25:49;1.67;;;1.58;;
20110;SDS011;10216;42.658;23.248;2023-09-19T15:28:14;2.10;;;1.90;;